Time;durP1;ratioP1;P1;durP2;ratioP2;P2;SDS_P1;SDS_P2;PMS_P1;PMS_P2;Temp;Humidity;BMP_temperature;BMP_pressure;BME280_temperature;BME280_humidity;BME280_pressure;Samples;Min_cycle;Max_cycle;Signal;HPM_P1;HPM_P2
2023/04/11 00:01:33;;;;;;;;;;;;;;;8.67;100.00;97740.69;5066554;28;19925;-74
2023/04/11 00:04:00;;;;;;;;;;;;;;;8.62;100.00;97736.13;5066640;28;19932;-75
2023/04/11 00:06:27;;;;;;;;;;;;;;;8.68;100.00;97727.13;5068832;28;19920;-73
2023/04/11 00:08:53;;;;;;;;;;;;;;;8.64;100.00;97726.03;5101691;28;19924;-74
2023/04/11 00:11:21;;;;;;;;;;;;;;;8.77;100.00;97742.63;5082870;28;19947;-73
2023/04/11 00:13:47;;;;;;;;;;;;;;;8.76;100.00;97741.81;5065190;28;19920;-75
2023/04/11 00:16:15;;;;;;;;;;;;;;;8.74;100.00;97735.94;5068668;28;19947;-74
2023/04/11 00:18:43;;;;;;;;;;;;;;;8.71;100.00;97731.13;5070023;28;20234;-74
2023/04/11 00:21:10;;;;;;;;;;;;;;;8.61;100.00;97713.22;5070710;28;19932;-75
2023/04/11 00:23:36;;;;;;;;;;;;;;;8.55;100.00;97711.59;5072594;28;19933;-73
2023/04/11 00:26:03;;;;;;;;;;;;;;;8.50;100.00;97708.88;5094655;28;19921;-74
2023/04/11 00:28:30;;;;;;;;;;;;;;;8.52;100.00;97692.66;5077785;28;19943;-74
2023/04/11 00:30:57;;;;;;;;;;;;;;;8.52;100.00;97672.16;5073785;28;19920;-73
2023/04/11 00:33:23;;;;;;;;;;;;;;;8.42;100.00;97660.63;5087054;28;19924;-75
2023/04/11 00:35:50;;;;;;;;;;;;;;;8.44;100.00;97651.38;5086782;28;19924;-74
2023/04/11 00:38:16;;;;;;;;;;;;;;;8.39;100.00;97653.16;5090332;28;19920;-74
2023/04/11 00:40:43;;;;;;;;;;;;;;;8.38;100.00;97651.56;5090118;28;19927;-74
2023/04/11 00:43:09;;;;;;;;;;;;;;;8.32;100.00;97656.06;5069692;28;19928;-73
2023/04/11 00:45:37;;;;;;;;;;;;;;;8.35;100.00;97631.59;5086424;28;19928;-73
2023/04/11 00:48:03;;;;;;;;;;;;;;;8.29;100.00;97627.31;5070812;28;19925;-73
2023/04/11 00:50:30;;;;;;;;;;;;;;;8.33;100.00;97644.34;5105824;28;19927;-75
2023/04/11 00:52:57;;;;;;;;;;;;;;;8.34;100.00;97647.81;5089011;28;20610;-75
2023/04/11 00:55:24;;;;;;;;;;;;;;;8.51;100.00;97643.94;5086931;28;19925;-73
2023/04/11 00:57:53;;;;;;;;;;;;;;;8.48;100.00;97654.31;5069297;28;19937;-73
2023/04/11 01:00:19;;;;;;;;;;;;;;;8.46;100.00;97683.84;5107351;28;19936;-75
2023/04/11 01:02:47;;;;;;;;;;;;;;;8.37;100.00;97681.88;5072487;28;19928;-73
2023/04/11 01:05:15;;;;;;;;;;;;;;;8.51;100.00;97705.16;5069211;28;19928;-73
2023/04/11 01:07:43;;;;;;;;;;;;;;;9.34;100.00;97703.56;5069214;28;19931;-75
2023/04/11 01:10:09;;;;;;;;;;;;;;;9.69;100.00;97701.00;5068749;28;19929;-74
2023/04/11 01:12:36;;;;;;;;;;;;;;;8.91;100.00;97699.31;5078840;28;19929;-73
2023/04/11 01:15:03;;;;;;;;;;;;;;;8.67;100.00;97687.44;5077237;28;19924;-73
2023/04/11 01:17:31;;;;;;;;;;;;;;;8.61;100.00;97678.63;5073681;28;19924;-72
2023/04/11 01:19:58;;;;;;;;;;;;;;;8.78;100.00;97669.69;5070132;28;19932;-75
2023/04/11 01:22:26;;;;;;;;;;;;;;;8.74;100.00;97665.91;5072673;28;19932;-74
2023/04/11 01:24:53;;;;;;;;;;;;;;;8.68;100.00;97660.56;5089355;28;19931;-74
2023/04/11 01:27:20;;;;;;;;;;;;;;;8.74;100.00;97657.94;5086371;28;19925;-75
2023/04/11 01:29:46;;;;;;;;;;;;;;;8.65;100.00;97647.78;5088164;28;19925;-74
2023/04/11 01:32:12;;;;;;;;;;;;;;;8.58;100.00;97649.03;5107024;28;19921;-72
2023/04/11 01:34:40;;;;;;;;;;;;;;;8.54;100.00;97661.28;5091067;28;19932;-74
2023/04/11 01:37:06;;;;;;;;;;;;;;;8.54;100.00;97662.06;5071064;28;19924;-73
2023/04/11 01:39:32;;;;;;;;;;;;;;;9.05;100.00;97659.72;5086981;28;19924;-73
2023/04/11 01:42:01;;;;;;;;;;;;;;;9.53;100.00;97645.25;5089187;28;19932;-75
2023/04/11 01:44:28;;;;;;;;;;;;;;;8.85;100.00;97617.78;5074133;28;19920;-74
2023/04/11 01:46:55;;;;;;;;;;;;;;;8.60;100.00;97605.13;5073233;28;19925;-72
2023/04/11 01:49:23;;;;;;;;;;;;;;;8.56;100.00;97614.72;5088005;28;19921;-73
2023/04/11 01:51:49;;;;;;;;;;;;;;;8.88;100.00;97629.81;5087475;28;19920;-73
2023/04/11 01:54:16;;;;;;;;;;;;;;;9.33;100.00;97615.88;5090838;28;19924;-73
2023/04/11 01:56:42;;;;;;;;;;;;;;;8.87;100.00;97617.53;5091672;28;19932;-73
2023/04/11 01:59:13;;;;;;;;;;;;;;;8.47;100.00;97607.47;5071126;28;19935;-73
2023/04/11 02:01:42;;;;;;;;;;;;;;;8.39;100.00;97592.78;5071747;28;19925;-73
2023/04/11 02:04:08;;;;;;;;;;;;;;;8.58;100.00;97590.50;5072829;28;19921;-73
2023/04/11 02:06:34;;;;;;;;;;;;;;;8.68;100.00;97575.38;5071483;28;19926;-74
2023/04/11 02:09:01;;;;;;;;;;;;;;;8.87;100.00;97589.06;5069594;28;20342;-75
2023/04/11 02:11:27;;;;;;;;;;;;;;;8.98;100.00;97587.22;5067857;28;19925;-72
2023/04/11 02:13:55;;;;;;;;;;;;;;;8.84;100.00;97586.09;5087818;28;19921;-73
2023/04/11 02:16:24;;;;;;;;;;;;;;;9.33;100.00;97584.69;5076989;28;19909;-73
2023/04/11 02:18:51;;;;;;;;;;;;;;;9.80;100.00;97589.03;5068199;28;19981;-75
2023/04/11 02:21:18;;;;;;;;;;;;;;;9.43;100.00;97573.25;5070968;28;19931;-73
2023/04/11 02:23:44;;;;;;;;;;;;;;;8.82;100.00;97574.94;5070561;28;19924;-75
2023/04/11 02:26:10;;;;;;;;;;;;;;;8.52;100.00;97571.03;5085296;28;19936;-75
2023/04/11 02:28:37;;;;;;;;;;;;;;;8.34;100.00;97582.09;5067000;28;19929;-74
2023/04/11 02:31:03;;;;;;;;;;;;;;;8.28;100.00;97571.69;5092894;28;19932;-75
2023/04/11 02:33:31;;;;;;;;;;;;;;;8.17;100.00;97533.53;5084577;28;19924;-75
2023/04/11 02:35:57;;;;;;;;;;;;;;;9.13;100.00;97556.13;5085532;28;19920;-74
2023/04/11 02:38:23;;;;;;;;;;;;;;;9.13;100.00;97547.31;5070140;28;19924;-73
2023/04/11 02:40:50;;;;;;;;;;;;;;;8.57;100.00;97552.41;5087021;28;19925;-73
2023/04/11 02:43:16;;;;;;;;;;;;;;;8.71;100.00;97562.59;5084807;28;19929;-74
2023/04/11 02:45:45;;;;;;;;;;;;;;;9.08;100.00;97563.28;5066979;28;19925;-72
2023/04/11 02:48:12;;;;;;;;;;;;;;;9.00;100.00;97577.13;5087658;28;20693;-75
2023/04/11 02:50:40;;;;;;;;;;;;;;;8.85;100.00;97561.09;5088056;28;19932;-74
2023/04/11 02:53:07;;;;;;;;;;;;;;;8.42;100.00;97562.97;5085250;28;19948;-75
2023/04/11 02:55:33;;;;;;;;;;;;;;;8.92;100.00;97588.25;5083877;28;19978;-73
2023/04/11 02:58:00;;;;;;;;;;;;;;;9.17;100.00;97580.38;5085893;28;19992;-74
2023/04/11 03:00:26;;;;;;;;;;;;;;;8.94;100.00;97583.50;5088872;28;20023;-75
2023/04/11 03:02:55;;;;;;;;;;;;;;;8.69;100.00;97570.88;5086924;28;19924;-73
2023/04/11 03:05:21;;;;;;;;;;;;;;;8.64;100.00;97571.63;5084139;28;19947;-75
2023/04/11 03:07:49;;;;;;;;;;;;;;;8.72;100.00;97564.22;5066368;28;19932;-73
2023/04/11 03:10:15;;;;;;;;;;;;;;;9.37;100.00;97563.66;5070046;28;19924;-73
2023/04/11 03:12:42;;;;;;;;;;;;;;;9.51;100.00;97570.88;5087502;28;19925;-75
2023/04/11 03:15:08;;;;;;;;;;;;;;;8.71;100.00;97570.59;5067088;28;19924;-73
2023/04/11 03:17:35;;;;;;;;;;;;;;;8.67;100.00;97554.34;5084652;28;19925;-74
2023/04/11 03:20:05;;;;;;;;;;;;;;;8.64;100.00;97560.19;5068793;28;19927;-74
2023/04/11 03:22:32;;;;;;;;;;;;;;;8.70;100.00;97567.13;5069671;28;19925;-73
2023/04/11 03:25:00;;;;;;;;;;;;;;;8.66;100.00;97568.72;5068151;28;19920;-74
2023/04/11 03:27:26;;;;;;;;;;;;;;;8.37;100.00;97559.50;5066146;28;19924;-71
2023/04/11 03:29:52;;;;;;;;;;;;;;;8.24;100.00;97554.59;5085565;28;19924;-73
2023/04/11 03:32:18;;;;;;;;;;;;;;;8.12;100.00;97547.63;5087377;28;19925;-75
2023/04/11 03:34:45;;;;;;;;;;;;;;;8.22;100.00;97546.06;5087450;28;19925;-74
2023/04/11 03:37:11;;;;;;;;;;;;;;;7.97;100.00;97533.41;5083982;28;19925;-74
2023/04/11 03:39:38;;;;;;;;;;;;;;;7.85;100.00;97524.81;5083673;28;19939;-75
2023/04/11 03:42:05;;;;;;;;;;;;;;;7.96;100.00;97523.81;5085451;28;19924;-73
2023/04/11 03:44:32;;;;;;;;;;;;;;;7.89;100.00;97517.94;5086728;28;19932;-73
2023/04/11 03:46:58;;;;;;;;;;;;;;;7.88;100.00;97526.97;5085957;28;19921;-74
2023/04/11 03:49:24;;;;;;;;;;;;;;;7.83;100.00;97525.06;5083408;28;19925;-71
2023/04/11 03:51:51;;;;;;;;;;;;;;;7.97;100.00;97531.56;5084390;28;19933;-72
2023/04/11 03:54:17;;;;;;;;;;;;;;;7.93;100.00;97514.50;5089498;28;19928;-73
2023/04/11 03:56:44;;;;;;;;;;;;;;;7.98;100.00;97508.44;5093105;28;19925;-72
2023/04/11 03:59:11;;;;;;;;;;;;;;;7.86;100.00;97510.47;5087226;28;19929;-74
2023/04/11 04:01:38;;;;;;;;;;;;;;;7.88;100.00;97511.81;5067386;28;19925;-74
2023/04/11 04:04:05;;;;;;;;;;;;;;;7.89;100.00;97502.75;5067813;28;19932;-72
2023/04/11 04:06:31;;;;;;;;;;;;;;;8.00;100.00;97495.66;5086687;28;19951;-73
2023/04/11 04:08:58;;;;;;;;;;;;;;;8.98;100.00;97508.13;5085666;28;19928;-74
2023/04/11 04:11:24;;;;;;;;;;;;;;;9.33;100.00;97499.41;5065708;28;19925;-73
2023/04/11 04:13:51;;;;;;;;;;;;;;;9.58;100.00;97498.63;5083829;28;20254;-73
2023/04/11 04:16:19;;;;;;;;;;;;;;;8.99;100.00;97495.63;5086632;28;19928;-74
2023/04/11 04:18:45;;;;;;;;;;;;;;;8.47;100.00;97493.84;5086669;28;19931;-73
2023/04/11 04:21:11;;;;;;;;;;;;;;;8.23;100.00;97489.97;5083697;28;19936;-75
2023/04/11 04:23:46;;;;;;;;;;;;;;;8.05;100.00;97504.47;5083086;28;20552;-74
2023/04/11 04:26:14;;;;;;;;;;;;;;;7.86;100.00;97487.31;5068349;28;19932;-73
2023/04/11 04:28:45;;;;;;;;;;;;;;;8.05;100.00;97491.19;5086488;28;19924;-74
2023/04/11 04:31:11;;;;;;;;;;;;;;;8.10;100.00;97498.41;5084946;28;19925;-73
2023/04/11 04:33:41;;;;;;;;;;;;;;;7.83;100.00;97485.19;5065521;28;19924;-73
2023/04/11 04:36:08;;;;;;;;;;;;;;;7.76;100.00;97473.97;5067678;28;19951;-74
2023/04/11 04:38:37;;;;;;;;;;;;;;;8.26;100.00;97470.84;5086142;28;19924;-74
2023/04/11 04:41:04;;;;;;;;;;;;;;;8.86;100.00;97464.16;5066828;28;19925;-74
2023/04/11 04:43:32;;;;;;;;;;;;;;;8.82;100.00;97452.44;5083021;28;20598;-73
2023/04/11 04:45:58;;;;;;;;;;;;;;;8.47;100.00;97453.94;5083812;28;20006;-72
2023/04/11 04:48:25;;;;;;;;;;;;;;;8.65;100.00;97447.34;5068428;28;19955;-71
2023/04/11 04:50:52;;;;;;;;;;;;;;;8.63;100.00;97444.16;5085592;28;19921;-72
2023/04/11 04:53:21;;;;;;;;;;;;;;;8.32;100.00;97445.09;5082597;28;19925;-72
2023/04/11 04:55:47;;;;;;;;;;;;;;;7.98;100.00;97450.72;5082570;28;19928;-72
2023/04/11 04:58:14;;;;;;;;;;;;;;;8.03;100.00;97455.28;5086038;28;19924;-71
2023/04/11 05:00:40;;;;;;;;;;;;;;;7.83;100.00;97444.53;5087556;28;19932;-72
2023/04/11 05:03:07;;;;;;;;;;;;;;;8.28;100.00;97444.78;5083348;28;19920;-72
2023/04/11 05:05:33;;;;;;;;;;;;;;;8.07;100.00;97437.75;5085086;28;19932;-72
2023/04/11 05:08:01;;;;;;;;;;;;;;;8.93;100.00;97456.72;5087412;28;19932;-71
2023/04/11 05:10:27;;;;;;;;;;;;;;;8.47;100.00;97416.69;5089402;28;19939;-70
2023/04/11 05:12:54;;;;;;;;;;;;;;;8.38;100.00;97447.50;5070805;28;19924;-71
2023/04/11 05:15:22;;;;;;;;;;;;;;;8.86;100.00;97456.16;5068271;28;19924;-72
2023/04/11 05:17:48;;;;;;;;;;;;;;;8.67;100.00;97451.31;5068063;28;19932;-72
2023/04/11 05:20:15;;;;;;;;;;;;;;;8.36;100.00;97460.25;5089096;28;19947;-72
2023/04/11 05:22:41;;;;;;;;;;;;;;;8.84;100.00;97476.94;5089187;28;19928;-71
2023/04/11 05:25:10;;;;;;;;;;;;;;;8.98;100.00;97467.38;5086554;28;19928;-71
2023/04/11 05:27:37;;;;;;;;;;;;;;;8.58;100.00;97486.69;5085608;28;19920;-72
2023/04/11 05:30:03;;;;;;;;;;;;;;;9.03;100.00;97502.03;5089127;28;19924;-71
2023/04/11 05:32:31;;;;;;;;;;;;;;;9.13;100.00;97494.03;5071372;28;19924;-73
2023/04/11 05:34:57;;;;;;;;;;;;;;;8.70;100.00;97483.84;5070489;28;19924;-70
2023/04/11 05:37:24;;;;;;;;;;;;;;;9.12;100.00;97490.59;5068113;28;19948;-72
2023/04/11 05:39:51;;;;;;;;;;;;;;;9.06;100.00;97494.31;5069997;28;19924;-72
2023/04/11 05:42:19;;;;;;;;;;;;;;;8.65;100.00;97496.06;5092380;28;19955;-72
2023/04/11 05:44:45;;;;;;;;;;;;;;;8.85;100.00;97484.66;5090807;28;19924;-73
2023/04/11 05:47:12;;;;;;;;;;;;;;;9.13;100.00;97478.88;5068276;28;19940;-72
2023/04/11 05:49:38;;;;;;;;;;;;;;;9.27;100.00;97475.69;5085417;28;19929;-71
2023/04/11 05:52:04;;;;;;;;;;;;;;;8.71;100.00;97453.47;5069585;28;19925;-72
2023/04/11 05:54:32;;;;;;;;;;;;;;;8.63;100.00;97452.91;5088459;28;19929;-72
2023/04/11 05:56:58;;;;;;;;;;;;;;;8.82;100.00;97481.75;5087314;28;19936;-71
2023/04/11 05:59:27;;;;;;;;;;;;;;;9.17;100.00;97485.28;5085432;28;20212;-72
2023/04/11 06:01:53;;;;;;;;;;;;;;;8.69;100.00;97483.03;5087156;28;19943;-71
2023/04/11 06:04:19;;;;;;;;;;;;;;;8.81;100.00;97490.78;5088474;28;19932;-71
2023/04/11 06:06:46;;;;;;;;;;;;;;;9.11;100.00;97480.19;5088539;28;19925;-73
2023/04/11 06:09:12;;;;;;;;;;;;;;;8.86;100.00;97486.25;5085184;28;19925;-72
2023/04/11 06:11:39;;;;;;;;;;;;;;;8.99;100.00;97496.44;5085001;28;19929;-73
2023/04/11 06:14:05;;;;;;;;;;;;;;;8.98;100.00;97494.00;5069365;28;19925;-72
2023/04/11 06:16:35;;;;;;;;;;;;;;;8.77;100.00;97489.69;5087185;28;19920;-71
2023/04/11 06:19:02;;;;;;;;;;;;;;;8.60;100.00;97480.03;5086306;28;19924;-71
2023/04/11 06:21:28;;;;;;;;;;;;;;;8.47;100.00;97480.53;5084700;28;19936;-72
2023/04/11 06:23:54;;;;;;;;;;;;;;;8.48;100.00;97476.81;5067576;28;19925;-72
2023/04/11 06:26:21;;;;;;;;;;;;;;;8.52;100.00;97479.75;5088330;28;19935;-72
2023/04/11 06:28:47;;;;;;;;;;;;;;;8.52;100.00;97483.22;5087982;28;19925;-73
2023/04/11 06:31:13;;;;;;;;;;;;;;;8.55;100.00;97490.69;5086057;28;19932;-72
2023/04/11 06:33:41;;;;;;;;;;;;;;;8.53;100.00;97492.00;5100342;28;19925;-73
2023/04/11 06:36:08;;;;;;;;;;;;;;;8.53;100.00;97506.13;5086816;28;19932;-73
2023/04/11 06:38:35;;;;;;;;;;;;;;;8.82;100.00;97495.06;5072593;28;19925;-73
2023/04/11 06:41:01;;;;;;;;;;;;;;;8.89;100.00;97487.59;5065176;28;20637;-72
2023/04/11 06:43:28;;;;;;;;;;;;;;;8.93;100.00;97499.34;5076081;28;19938;-74
2023/04/11 06:45:54;;;;;;;;;;;;;;;8.92;100.00;97493.19;5066636;28;19925;-73
2023/04/11 06:48:21;;;;;;;;;;;;;;;9.05;100.00;97495.38;5076116;28;19925;-73
2023/04/11 06:50:49;;;;;;;;;;;;;;;9.00;100.00;97505.22;5075917;28;19966;-74
2023/04/11 06:53:15;;;;;;;;;;;;;;;8.99;100.00;97503.59;5069843;28;19936;-74
2023/04/11 06:55:41;;;;;;;;;;;;;;;9.12;100.00;97500.44;5087560;28;19921;-74
2023/04/11 06:58:08;;;;;;;;;;;;;;;9.29;100.00;97498.34;5084971;28;19925;-72
2023/04/11 07:00:34;;;;;;;;;;;;;;;9.14;100.00;97506.31;5090201;28;19925;-73
2023/04/11 07:03:06;;;;;;;;;;;;;;;8.98;100.00;97502.00;5068138;28;19924;-71
2023/04/11 07:05:32;;;;;;;;;;;;;;;8.88;100.00;97507.31;5066292;28;19921;-73
2023/04/11 07:08:00;;;;;;;;;;;;;;;8.89;100.00;97514.22;5085090;28;19925;-73
2023/04/11 07:10:26;;;;;;;;;;;;;;;8.94;100.00;97519.59;5069336;28;19921;-72
2023/04/11 07:12:53;;;;;;;;;;;;;;;8.99;100.00;97514.25;5069249;28;19924;-71
2023/04/11 07:15:19;;;;;;;;;;;;;;;8.99;100.00;97514.25;5083808;28;20331;-73
2023/04/11 07:17:47;;;;;;;;;;;;;;;9.04;100.00;97519.59;5083724;28;19925;-73
2023/04/11 07:20:13;;;;;;;;;;;;;;;9.13;100.00;97532.13;5086723;28;19924;-72
2023/04/11 07:22:41;;;;;;;;;;;;;;;9.14;100.00;97527.63;5069061;28;19935;-72
2023/04/11 07:25:09;;;;;;;;;;;;;;;9.21;100.00;97530.84;5084416;28;19924;-73
2023/04/11 07:27:35;;;;;;;;;;;;;;;9.14;100.00;97539.06;5065253;28;19931;-74
2023/04/11 07:30:02;;;;;;;;;;;;;;;9.13;100.00;97534.00;5068854;28;19936;-73
2023/04/11 07:32:28;;;;;;;;;;;;;;;9.15;100.00;97538.03;5069171;28;19924;-73
2023/04/11 07:34:55;;;;;;;;;;;;;;;9.19;100.00;97532.97;5085675;28;19925;-73
2023/04/11 07:37:21;;;;;;;;;;;;;;;9.20;100.00;97561.19;5082997;28;19925;-72
2023/04/11 07:39:48;;;;;;;;;;;;;;;9.12;100.00;97572.38;5083291;28;19932;-72
2023/04/11 07:42:15;;;;;;;;;;;;;;;9.09;100.00;97575.56;5086474;28;19924;-72
2023/04/11 07:44:42;;;;;;;;;;;;;;;9.19;100.00;97570.28;5086447;28;19920;-73
2023/04/11 07:47:08;;;;;;;;;;;;;;;9.06;100.00;97592.06;5084034;28;19925;-74
2023/04/11 07:49:34;;;;;;;;;;;;;;;9.00;100.00;97595.78;5083094;28;19925;-73
2023/04/11 07:52:01;;;;;;;;;;;;;;;8.97;100.00;97606.94;5085891;28;19924;-71
2023/04/11 07:54:29;;;;;;;;;;;;;;;8.96;100.00;97616.00;5070891;28;19924;-72
2023/04/11 07:56:55;;;;;;;;;;;;;;;8.94;100.00;97616.25;5086913;28;19920;-71
2023/04/11 07:59:23;;;;;;;;;;;;;;;9.00;100.00;97615.22;5083253;28;19971;-71
2023/04/11 08:01:57;;;;;;;;;;;;;;;9.02;100.00;97620.28;5084248;28;19936;-73
2023/04/11 08:04:23;;;;;;;;;;;;;;;9.02;100.00;97614.94;5087267;28;19951;-72
2023/04/11 08:06:50;;;;;;;;;;;;;;;9.01;100.00;97624.00;5086207;28;19924;-72
2023/04/11 08:09:17;;;;;;;;;;;;;;;9.00;100.00;97622.41;5086577;28;19943;-72
2023/04/11 08:11:43;;;;;;;;;;;;;;;9.24;100.00;97628.91;5086248;28;19931;-74
2023/04/11 08:14:09;;;;;;;;;;;;;;;9.43;100.00;97630.03;5083709;28;19931;-71
2023/04/11 08:16:37;;;;;;;;;;;;;;;9.50;100.00;97635.91;5082649;28;19932;-71
2023/04/11 08:19:03;;;;;;;;;;;;;;;9.60;100.00;97641.25;5084442;28;19925;-73
2023/04/11 08:21:30;;;;;;;;;;;;;;;9.67;100.00;97641.00;5086335;28;19929;-71
2023/04/11 08:23:57;;;;;;;;;;;;;;;9.70;100.00;97654.63;5085374;28;20031;-72
2023/04/11 08:26:23;;;;;;;;;;;;;;;9.55;100.00;97656.44;5082809;28;19925;-72
2023/04/11 08:28:49;;;;;;;;;;;;;;;9.44;100.00;97663.59;5082787;28;19929;-73
2023/04/11 08:31:16;;;;;;;;;;;;;;;9.35;100.00;97661.69;5084297;28;20016;-73
2023/04/11 08:33:44;;;;;;;;;;;;;;;9.42;100.00;97663.06;5082647;28;19921;-71
2023/04/11 08:36:11;;;;;;;;;;;;;;;9.52;100.00;97657.78;5085391;28;19932;-71
2023/04/11 08:38:37;;;;;;;;;;;;;;;9.70;100.00;97657.28;5086078;28;19920;-71
2023/04/11 08:41:04;;;;;;;;;;;;;;;9.77;100.00;97643.72;5087732;28;19931;-73
2023/04/11 08:43:33;;;;;;;;;;;;;;;9.83;100.00;97636.50;5086655;28;20434;-72
2023/04/11 08:46:00;;;;;;;;;;;;;;;9.90;100.00;97632.53;5087663;28;19932;-71
2023/04/11 08:48:27;;;;;;;;;;;;;;;9.82;100.00;97629.56;5090014;28;19932;-71
2023/04/11 08:50:54;;;;;;;;;;;;;;;9.80;100.00;97623.72;5071486;28;19924;-72
2023/04/11 08:53:23;;;;;;;;;;;;;;;9.86;100.00;97615.47;5086466;28;19924;-72
2023/04/11 08:55:49;;;;;;;;;;;;;;;9.94;100.00;97603.44;5086340;28;19925;-72
2023/04/11 08:58:16;;;;;;;;;;;;;;;9.90;100.00;97631.72;5072240;28;19924;-73
2023/04/11 09:00:43;;;;;;;;;;;;;;;9.97;100.00;97648.25;5091144;28;19925;-72
2023/04/11 09:03:10;;;;;;;;;;;;;;;10.00;100.00;97642.41;5069271;28;19925;-71
2023/04/11 09:05:37;;;;;;;;;;;;;;;10.02;100.00;97651.75;5077746;28;19920;-71
2023/04/11 09:08:06;;;;;;;;;;;;;;;10.08;100.00;97656.03;5077808;28;19924;-71
2023/04/11 09:10:32;;;;;;;;;;;;;;;10.14;100.00;97655.00;5077737;28;20487;-72
2023/04/11 09:12:59;;;;;;;;;;;;;;;10.05;100.00;97640.56;5078845;28;19925;-72
2023/04/11 09:15:27;;;;;;;;;;;;;;;10.13;100.00;97658.72;5089424;28;19928;-71
2023/04/11 09:17:54;;;;;;;;;;;;;;;10.17;100.00;97649.13;5071150;28;19924;-71
2023/04/11 09:20:24;;;;;;;;;;;;;;;10.20;100.00;97629.91;5085516;28;20602;-71
2023/04/11 09:22:52;;;;;;;;;;;;;;;10.22;100.00;97646.44;5085880;28;19929;-73
2023/04/11 09:25:20;;;;;;;;;;;;;;;10.25;100.00;97642.44;5089260;28;19920;-70
2023/04/11 09:27:46;;;;;;;;;;;;;;;10.33;100.00;97636.59;5089013;28;19932;-71
2023/04/11 09:30:22;;;;;;;;;;;;;;;10.22;100.00;97645.66;5089109;28;19934;-72
2023/04/11 09:32:49;;;;;;;;;;;;;;;10.28;100.00;97640.03;5089207;28;19935;-73
2023/04/11 09:35:17;;;;;;;;;;;;;;;10.41;100.00;97638.72;5085564;28;19925;-73
2023/04/11 09:37:47;;;;;;;;;;;;;;;10.51;100.00;97637.91;5085609;28;19925;-73
2023/04/11 09:40:15;;;;;;;;;;;;;;;10.45;100.00;97639.78;5088670;28;19932;-73
2023/04/11 09:42:43;;;;;;;;;;;;;;;10.55;100.00;97645.09;5088964;28;19924;-72
2023/04/11 09:45:17;;;;;;;;;;;;;;;10.56;100.00;97637.88;5086148;28;19952;-72
2023/04/11 09:47:43;;;;;;;;;;;;;;;10.65;100.00;97634.41;5085406;28;19924;-71
2023/04/11 09:50:10;;;;;;;;;;;;;;;10.75;100.00;97628.25;5069927;28;19932;-70
2023/04/11 09:52:38;;;;;;;;;;;;;;;10.68;100.00;97628.53;5088674;28;19932;-71
2023/04/11 09:55:06;;;;;;;;;;;;;;;10.60;100.00;97633.63;5069014;28;19947;-70
2023/04/11 09:57:34;;;;;;;;;;;;;;;10.57;100.00;97629.63;5085442;28;19925;-70
2023/04/11 10:00:08;;;;;;;;;;;;;;;10.49;100.00;97635.47;5071375;28;19955;-69
2023/04/11 10:02:35;;;;;;;;;;;;;;;10.64;100.00;97624.81;5089544;28;19925;-68
2023/04/11 10:05:03;;;;;;;;;;;;;;;10.44;100.00;97618.69;5069717;28;19997;-69
2023/04/11 10:07:29;;;;;;;;;;;;;;;10.51;100.00;97628.03;5067208;28;19929;-69
2023/04/11 10:09:56;;;;;;;;;;;;;;;10.55;100.00;97634.41;5085586;28;19924;-71
2023/04/11 10:12:32;;;;;;;;;;;;;;;10.56;100.00;97635.22;5088128;28;19924;-73
2023/04/11 10:15:05;;;;;;;;;;;;;;;10.59;100.00;97632.00;5087225;28;19924;-70
2023/04/11 10:17:33;;;;;;;;;;;;;;;10.56;100.00;97625.34;5084719;28;19932;-72
2023/04/11 10:19:59;;;;;;;;;;;;;;;10.82;100.00;97637.59;5085814;28;19925;-72
2023/04/11 10:22:45;;;;;;;;;;;;;;;10.97;100.00;97646.63;5088105;28;19946;-71
2023/04/11 10:25:15;;;;;;;;;;;;;;;10.78;100.00;97643.72;5084957;28;19932;-72
2023/04/11 10:27:48;;;;;;;;;;;;;;;10.97;100.00;97644.75;5084505;28;19925;-72
2023/04/11 10:30:14;;;;;;;;;;;;;;;10.76;100.00;97641.34;5089373;28;19924;-72
2023/04/11 10:33:02;;;;;;;;;;;;;;;10.67;100.00;97648.31;5087852;28;19950;-70
2023/04/11 10:35:29;;;;;;;;;;;;;;;10.73;100.00;97652.56;5084284;28;19935;-73
2023/04/11 10:37:56;;;;;;;;;;;;;;;10.72;100.00;97644.81;5085178;28;19967;-71
2023/04/11 10:40:24;;;;;;;;;;;;;;;10.86;100.00;97643.19;5088005;28;19931;-74
2023/04/11 10:42:50;;;;;;;;;;;;;;;10.92;100.00;97643.97;5070135;28;19924;-73
2023/04/11 10:45:17;;;;;;;;;;;;;;;10.74;100.00;97631.97;5070383;28;19920;-73
2023/04/11 10:47:59;;;;;;;;;;;;;;;10.71;100.00;97633.31;5070088;28;19924;-73
2023/04/11 10:50:33;;;;;;;;;;;;;;;10.92;100.00;97636.75;5083320;28;19925;-72
2023/04/11 10:53:00;;;;;;;;;;;;;;;10.77;100.00;97631.44;5085445;28;19924;-74
2023/04/11 10:55:27;;;;;;;;;;;;;;;10.97;100.00;97641.28;5069779;28;19920;-73
2023/04/11 10:58:04;;;;;;;;;;;;;;;10.96;100.00;97640.47;5087172;28;20319;-73
2023/04/11 11:00:52;;;;;;;;;;;;;;;10.92;100.00;97643.97;5071895;28;19946;-72
2023/04/11 11:03:20;;;;;;;;;;;;;;;10.91;100.00;97647.72;5083511;28;19925;-73
2023/04/11 11:05:47;;;;;;;;;;;;;;;11.03;100.00;97649.00;5083917;28;19920;-74
2023/04/11 11:08:13;;;;;;;;;;;;;;;11.09;100.00;97652.47;5069631;28;19925;-75
2023/04/11 11:10:41;;;;;;;;;;;;;;;11.06;100.00;97650.34;5069695;28;19932;-73
2023/04/11 11:13:07;;;;;;;;;;;;;;;11.13;100.00;97654.34;5067349;28;19924;-74
2023/04/11 11:15:36;;;;;;;;;;;;;;;11.23;100.00;97645.47;5066791;28;19947;-74
2023/04/11 11:18:03;;;;;;;;;;;;;;;11.26;100.00;97652.97;5089818;28;19929;-71
2023/04/11 11:20:31;;;;;;;;;;;;;;;11.14;100.00;97642.56;5089549;28;19932;-72
2023/04/11 11:22:58;;;;;;;;;;;;;;;11.30;100.00;97645.97;5070054;28;19931;-74
2023/04/11 11:25:25;;;;;;;;;;;;;;;11.32;100.00;97638.50;5083656;28;19935;-72
2023/04/11 11:27:58;;;;;;;;;;;;;;;11.36;100.00;97642.19;5084036;28;19932;-71
2023/04/11 11:30:24;;;;;;;;;;;;;;;11.22;100.00;97630.50;5088874;28;19924;-72
2023/04/11 11:32:50;;;;;;;;;;;;;;;11.50;100.00;97629.03;5086796;28;19924;-74
2023/04/11 11:35:18;;;;;;;;;;;;;;;11.64;100.00;97619.31;5087151;28;19925;-71
2023/04/11 11:37:46;;;;;;;;;;;;;;;11.80;100.00;97618.19;5070027;28;19925;-70
2023/04/11 11:40:13;;;;;;;;;;;;;;;11.85;100.00;97621.63;5075324;28;19931;-73
2023/04/11 11:42:40;;;;;;;;;;;;;;;11.68;100.00;97653.28;5075245;28;19924;-73
2023/04/11 11:45:13;;;;;;;;;;;;;;;11.74;100.00;97646.88;5075251;28;19924;-75
2023/04/11 11:47:43;;;;;;;;;;;;;;;11.59;100.00;97630.88;5075816;28;19925;-73
2023/04/11 11:50:10;;;;;;;;;;;;;;;11.80;100.00;97634.25;5087683;28;19924;-73
2023/04/11 11:52:38;;;;;;;;;;;;;;;11.78;100.00;97631.06;5088582;28;19946;-73
2023/04/11 11:55:08;;;;;;;;;;;;;;;11.73;100.00;97623.84;5085555;28;19930;-74
2023/04/11 11:57:35;;;;;;;;;;;;;;;11.71;100.00;97627.88;5066111;28;19932;-74
2023/04/11 12:00:05;;;;;;;;;;;;;;;11.75;100.00;97626.25;5069618;28;19921;-74
2023/04/11 12:02:33;;;;;;;;;;;;;;;11.77;100.00;97613.41;5087509;28;19924;-74
2023/04/11 12:05:03;;;;;;;;;;;;;;;12.01;100.00;97610.84;5085981;28;20506;-72
2023/04/11 12:07:31;;;;;;;;;;;;;;;12.04;100.00;97619.09;5083612;28;19936;-72
2023/04/11 12:09:59;;;;;;;;;;;;;;;11.95;100.00;97634.16;5066597;28;20613;-74
2023/04/11 12:12:33;;;;;;;;;;;;;;;12.02;100.00;97634.63;5086510;28;19998;-75
2023/04/11 12:14:59;;;;;;;;;;;;;;;11.89;100.00;97633.38;5069530;28;19925;-74
2023/04/11 12:17:31;;;;;;;;;;;;;;;12.14;100.00;97628.94;5086555;28;19936;-74
2023/04/11 12:19:57;;;;;;;;;;;;;;;12.01;100.00;97613.53;5070326;28;19925;-74
2023/04/11 12:22:23;;;;;;;;;;;;;;;12.10;100.00;97633.25;5073094;28;19925;-75
2023/04/11 12:24:51;;;;;;;;;;;;;;;12.34;100.00;97618.88;5072762;28;19924;-75
2023/04/11 12:27:17;;;;;;;;;;;;;;;12.21;100.00;97616.84;5090633;28;19932;-75
2023/04/11 12:29:46;;;;;;;;;;;;;;;12.37;100.00;97630.91;5090488;28;19924;-75
2023/04/11 12:32:12;;;;;;;;;;;;;;;12.48;100.00;97629.72;5072678;28;19925;-75
2023/04/11 12:34:39;;;;;;;;;;;;;;;12.27;100.00;97629.09;5072914;28;19925;-74
2023/04/11 12:37:05;;;;;;;;;;;;;;;12.26;100.00;97611.44;5070782;28;19925;-74
2023/04/11 12:39:31;;;;;;;;;;;;;;;12.40;100.00;97625.78;5069716;28;19921;-75
2023/04/11 12:41:58;;;;;;;;;;;;;;;12.30;100.00;97636.56;5088680;28;19920;-73
2023/04/11 12:44:24;;;;;;;;;;;;;;;12.44;100.00;97626.78;5091417;28;19920;-76